Back to Top

Language: 

My Weather Underground Personal Weather Station Historical Data with Graphs...

Delerius Weather Station Historical Data
Daily Summary for January 13, 2018 Units:  English    Metric   Both
« Previous Day
Next Day »
Daily Weekly Monthly Yearly Custom
  High: Low: Average:
Temperature: 42.3 °F 39.2 °F 41.2 °F
Dew Point: 40.7 °F 35.7 °F 38.4 °F
Humidity: 94 % 86 % 90 %
Wind Speed: 13.0 mph 4.0 mph 7.9 mph
Wind Gust: 20.0 mph - -
Wind:- - SE
Pressure: 30.16 in 30.06 in -
Precipitation: 0.00 in    
Historical Graphs
 
 
Tabular Data for January 13, 2018
Time Temperature Dew Point Pressure Wind Wind Speed Wind Gust Humidity Rainfall Rate (Hourly) solar Conditions
00:05 42.3 °F 40.7 °F 30.16 in SE 8.0 mph 10.0 mph 94 % 0.00 in 0 W/m2
00:10 42.3 °F 40.7 °F 30.16 in SE 8.0 mph 10.0 mph 94 % 0.00 in 0 W/m2
00:15 42.3 °F 40.7 °F 30.16 in SE 7.0 mph 9.0 mph 94 % 0.00 in 0 W/m2
00:34 42.3 °F 40.7 °F 30.15 in SE 8.0 mph 11.0 mph 94 % 0.00 in 0 W/m2
00:43 42.3 °F 40.7 °F 30.15 in SE 7.0 mph 9.0 mph 94 % 0.00 in 0 W/m2
00:49 42.3 °F 40.7 °F 30.15 in SE 7.0 mph 11.0 mph 94 % 0.00 in 0 W/m2
00:54 42.3 °F 40.7 °F 30.15 in SE 7.0 mph 11.0 mph 94 % 0.00 in 0 W/m2
01:02 42.3 °F 40.7 °F 30.15 in SE 8.0 mph 11.0 mph 94 % 0.00 in 0 W/m2
01:08 42.3 °F 40.7 °F 30.15 in SE 6.0 mph 10.0 mph 94 % 0.00 in 0 W/m2
01:14 42.3 °F 40.7 °F 30.15 in SE 6.0 mph 9.0 mph 94 % 0.00 in 0 W/m2
01:23 42.3 °F 40.7 °F 30.14 in SE 6.0 mph 10.0 mph 94 % 0.00 in 0 W/m2
01:29 42.3 °F 40.7 °F 30.14 in SE 6.0 mph 10.0 mph 94 % 0.00 in 0 W/m2
01:34 42.3 °F 40.7 °F 30.14 in SSE 6.0 mph 9.0 mph 94 % 0.00 in 0 W/m2
01:46 42.1 °F 40.5 °F 30.14 in SE 7.0 mph 10.0 mph 94 % 0.00 in 0 W/m2
01:53 42.1 °F 40.5 °F 30.14 in SE 6.0 mph 10.0 mph 94 % 0.00 in 0 W/m2
02:07 42.1 °F 40.5 °F 30.14 in SE 7.0 mph 11.0 mph 94 % 0.00 in 0 W/m2
02:13 41.9 °F 40.3 °F 30.13 in SE 6.0 mph 8.0 mph 94 % 0.00 in 0 W/m2
02:24 41.9 °F 40.3 °F 30.13 in SE 8.0 mph 12.0 mph 94 % 0.00 in 0 W/m2
02:40 41.7 °F 40.1 °F 30.13 in SE 8.0 mph 11.0 mph 94 % 0.00 in 0 W/m2
02:52 41.7 °F 40.1 °F 30.12 in SE 9.0 mph 14.0 mph 94 % 0.00 in 0 W/m2
02:57 41.7 °F 40.1 °F 30.12 in SE 9.0 mph 14.0 mph 94 % 0.00 in 0 W/m2
03:15 41.7 °F 39.8 °F 30.12 in SE 6.0 mph 12.0 mph 93 % 0.00 in 0 W/m2
03:21 41.7 °F 39.8 °F 30.12 in SE 6.0 mph 10.0 mph 93 % 0.00 in 0 W/m2
03:26 41.7 °F 39.6 °F 30.12 in SSE 7.0 mph 10.0 mph 92 % 0.00 in 0 W/m2
03:33 41.7 °F 39.6 °F 30.11 in SE 6.0 mph 10.0 mph 92 % 0.00 in 0 W/m2
03:42 41.7 °F 39.6 °F 30.11 in SE 11.0 mph 19.0 mph 92 % 0.00 in 0 W/m2
03:48 41.5 °F 39.4 °F 30.11 in SSE 9.0 mph 16.0 mph 92 % 0.00 in 0 W/m2
04:10 41.4 °F 38.9 °F 30.10 in SE 9.0 mph 15.0 mph 91 % 0.00 in 0 W/m2
04:24 41.2 °F 38.8 °F 30.10 in SE 7.0 mph 10.0 mph 91 % 0.00 in 0 W/m2
04:31 41.2 °F 38.8 °F 30.10 in SE 8.0 mph 13.0 mph 91 % 0.00 in 0 W/m2
04:39 41.0 °F 38.6 °F 30.10 in SE 8.0 mph 14.0 mph 91 % 0.00 in 0 W/m2
04:47 40.8 °F 38.4 °F 30.10 in SE 9.0 mph 15.0 mph 91 % 0.00 in 0 W/m2
04:52 40.8 °F 38.4 °F 30.10 in SE 9.0 mph 11.0 mph 91 % 0.00 in 0 W/m2
05:03 40.6 °F 38.2 °F 30.09 in SE 10.0 mph 14.0 mph 91 % 0.00 in 0 W/m2
05:19 40.6 °F 38.2 °F 30.09 in SSE 8.0 mph 11.0 mph 91 % 0.00 in 0 W/m2
05:31 40.5 °F 38.0 °F 30.09 in SE 9.0 mph 16.0 mph 91 % 0.00 in 0 W/m2
05:36 40.5 °F 38.0 °F 30.09 in SE 9.0 mph 13.0 mph 91 % 0.00 in 0 W/m2
05:41 40.5 °F 38.0 °F 30.09 in SE 8.0 mph 16.0 mph 91 % 0.00 in 0 W/m2
05:47 40.5 °F 38.0 °F 30.09 in SE 9.0 mph 14.0 mph 91 % 0.00 in 0 W/m2
05:54 40.5 °F 38.0 °F 30.09 in SE 9.0 mph 12.0 mph 91 % 0.00 in 0 W/m2
06:02 40.3 °F 37.9 °F 30.09 in SE 7.0 mph 14.0 mph 91 % 0.00 in 0 W/m2
06:20 40.3 °F 37.9 °F 30.09 in SE 7.0 mph 12.0 mph 91 % 0.00 in 0 W/m2
06:29 40.3 °F 37.9 °F 30.09 in SE 8.0 mph 12.0 mph 91 % 0.00 in 0 W/m2
06:35 40.3 °F 37.9 °F 30.09 in SE 7.0 mph 11.0 mph 91 % 0.00 in 0 W/m2
06:52 40.3 °F 37.9 °F 30.08 in SE 4.0 mph 7.0 mph 91 % 0.00 in 0 W/m2
07:06 40.3 °F 37.9 °F 30.08 in SSE 6.0 mph 11.0 mph 91 % 0.00 in 0 W/m2
07:11 40.3 °F 37.6 °F 30.09 in SE 7.0 mph 11.0 mph 90 % 0.00 in 0 W/m2
07:26 40.3 °F 37.6 °F 30.08 in SE 6.0 mph 13.0 mph 90 % 0.00 in 0 W/m2
07:39 40.3 °F 37.6 °F 30.08 in SE 7.0 mph 10.0 mph 90 % 0.00 in 0 W/m2
07:44 40.3 °F 37.6 °F 30.08 in SE 6.0 mph 11.0 mph 90 % 0.00 in 0 W/m2
07:54 40.5 °F 37.8 °F 30.08 in SE 6.0 mph 9.0 mph 90 % 0.00 in 0 W/m2
08:01 40.5 °F 37.8 °F 30.08 in SSE 7.0 mph 11.0 mph 90 % 0.00 in 0 W/m2
08:06 40.5 °F 37.8 °F 30.08 in SE 10.0 mph 14.0 mph 90 % 0.00 in 0 W/m2
08:14 40.5 °F 37.8 °F 30.08 in SE 8.0 mph 12.0 mph 90 % 0.00 in 0 W/m2
08:49 40.5 °F 37.5 °F 30.08 in SE 7.0 mph 11.0 mph 89 % 0.00 in 11 W/m2
08:56 40.5 °F 37.5 °F 30.08 in SE 12.0 mph 16.0 mph 89 % 0.00 in 9 W/m2
09:07 40.6 °F 37.7 °F 30.09 in SSE 10.0 mph 18.0 mph 89 % 0.00 in 11 W/m2
09:17 40.6 °F 37.7 °F 30.09 in SE 11.0 mph 16.0 mph 89 % 0.00 in 9 W/m2
09:23 40.6 °F 37.7 °F 30.09 in SE 10.0 mph 15.0 mph 89 % 0.00 in 9 W/m2
09:40 40.8 °F 37.8 °F 30.09 in SE 11.0 mph 15.0 mph 89 % 0.00 in 12 W/m2
09:45 40.8 °F 37.8 °F 30.09 in SE 9.0 mph 14.0 mph 89 % 0.00 in 12 W/m2
10:04 40.8 °F 37.8 °F 30.09 in SE 9.0 mph 14.0 mph 89 % 0.00 in 25 W/m2
10:10 40.8 °F 37.8 °F 30.09 in SE 13.0 mph 20.0 mph 89 % 0.00 in 33 W/m2
10:17 40.8 °F 37.8 °F 30.09 in SE 10.0 mph 15.0 mph 89 % 0.00 in 28 W/m2
10:23 40.8 °F 37.8 °F 30.09 in SE 11.0 mph 16.0 mph 89 % 0.00 in 37 W/m2
10:38 41.0 °F 38.0 °F 30.09 in SE 8.0 mph 16.0 mph 89 % 0.00 in 39 W/m2
10:46 41.2 °F 38.2 °F 30.09 in SSE 8.0 mph 13.0 mph 89 % 0.00 in 58 W/m2
10:47 41.2 °F 38.2 °F 30.09 in SSE 7.0 mph 13.0 mph 89 % 0.00 in 53 W/m2
10:53 41.2 °F 38.2 °F 30.09 in SE 10.0 mph 14.0 mph 89 % 0.00 in 47 W/m2
11:08 41.4 °F 38.1 °F 30.10 in SSE 10.0 mph 16.0 mph 88 % 0.00 in 42 W/m2
11:16 41.4 °F 38.1 °F 30.10 in SE 10.0 mph 14.0 mph 88 % 0.00 in 39 W/m2
11:22 41.5 °F 38.3 °F 30.10 in SE 10.0 mph 16.0 mph 88 % 0.00 in 35 W/m2
11:38 41.5 °F 38.0 °F 30.09 in SE 9.0 mph 15.0 mph 87 % 0.00 in 28 W/m2
11:46 41.5 °F 38.0 °F 30.09 in SE 7.0 mph 11.0 mph 87 % 0.00 in 30 W/m2
11:56 41.7 °F 38.1 °F 30.08 in SE 9.0 mph 13.0 mph 87 % 0.00 in 67 W/m2
12:02 41.7 °F 38.1 °F 30.08 in SE 11.0 mph 15.0 mph 87 % 0.00 in 70 W/m2
12:10 41.9 °F 38.0 °F 30.08 in SE 11.0 mph 16.0 mph 86 % 0.00 in 70 W/m2
12:16 42.1 °F 38.2 °F 30.08 in SSE 10.0 mph 15.0 mph 86 % 0.00 in 67 W/m2
12:21 42.1 °F 38.2 °F 30.08 in SE 10.0 mph 15.0 mph 86 % 0.00 in 65 W/m2
12:32 42.3 °F 38.4 °F 30.08 in SE 11.0 mph 18.0 mph 86 % 0.00 in 69 W/m2
12:37 42.3 °F 38.4 °F 30.07 in SE 9.0 mph 14.0 mph 86 % 0.00 in 67 W/m2
12:43 42.3 °F 38.4 °F 30.07 in SE 12.0 mph 18.0 mph 86 % 0.00 in 54 W/m2
12:57 42.3 °F 38.4 °F 30.07 in SSE 10.0 mph 15.0 mph 86 % 0.00 in 63 W/m2
13:04 42.3 °F 38.4 °F 30.07 in SE 9.0 mph 15.0 mph 86 % 0.00 in 58 W/m2
13:13 42.3 °F 38.7 °F 30.07 in SE 11.0 mph 15.0 mph 87 % 0.00 in 51 W/m2
13:20 42.3 °F 38.7 °F 30.07 in SE 11.0 mph 14.0 mph 87 % 0.00 in 40 W/m2
13:25 42.3 °F 38.7 °F 30.07 in SE 8.0 mph 12.0 mph 87 % 0.00 in 40 W/m2
13:35 42.3 °F 38.7 °F 30.07 in SE 7.0 mph 13.0 mph 87 % 0.00 in 42 W/m2
13:42 42.3 °F 38.7 °F 30.07 in SE 9.0 mph 14.0 mph 87 % 0.00 in 42 W/m2
13:50 42.3 °F 38.7 °F 30.07 in SE 10.0 mph 15.0 mph 87 % 0.00 in 42 W/m2
14:01 42.3 °F 39.0 °F 30.07 in SE 10.0 mph 13.0 mph 88 % 0.00 in 21 W/m2
14:12 42.3 °F 39.0 °F 30.07 in SE 6.0 mph 10.0 mph 88 % 0.00 in 12 W/m2
14:20 42.1 °F 38.8 °F 30.06 in SE 7.0 mph 10.0 mph 88 % 0.00 in 12 W/m2
14:27 42.1 °F 38.8 °F 30.06 in SE 8.0 mph 13.0 mph 88 % 0.00 in 14 W/m2
14:34 42.1 °F 38.8 °F 30.06 in SE 9.0 mph 13.0 mph 88 % 0.00 in 12 W/m2
14:48 42.1 °F 38.8 °F 30.06 in SE 7.0 mph 11.0 mph 88 % 0.00 in 18 W/m2
14:53 42.1 °F 39.1 °F 30.06 in SE 6.0 mph 10.0 mph 89 % 0.00 in 18 W/m2
14:58 42.3 °F 39.2 °F 30.06 in ESE 6.0 mph 12.0 mph 89 % 0.00 in 14 W/m2
15:03 42.3 °F 39.2 °F 30.06 in SE 7.0 mph 11.0 mph 89 % 0.00 in 12 W/m2
15:10 42.3 °F 39.2 °F 30.06 in ESE 10.0 mph 18.0 mph 89 % 0.00 in 14 W/m2
15:22 42.3 °F 39.2 °F 30.07 in SE 7.0 mph 13.0 mph 89 % 0.00 in 14 W/m2
15:46 42.3 °F 39.2 °F 30.07 in SE 9.0 mph 13.0 mph 89 % 0.00 in 11 W/m2
15:56 42.3 °F 39.0 °F 30.06 in SE 8.0 mph 14.0 mph 88 % 0.00 in 7 W/m2
16:03 42.3 °F 39.0 °F 30.07 in SE 8.0 mph 10.0 mph 88 % 0.00 in 5 W/m2
16:13 42.1 °F 38.8 °F 30.07 in SE 7.0 mph 10.0 mph 88 % 0.00 in 0 W/m2
16:23 42.1 °F 38.8 °F 30.07 in SE 8.0 mph 13.0 mph 88 % 0.00 in 0 W/m2
16:29 42.1 °F 38.8 °F 30.07 in ESE 7.0 mph 12.0 mph 88 % 0.00 in 0 W/m2
16:34 42.1 °F 39.1 °F 30.07 in SE 8.0 mph 12.0 mph 89 % 0.00 in 0 W/m2
16:48 42.1 °F 39.1 °F 30.07 in SE 9.0 mph 14.0 mph 89 % 0.00 in 0 W/m2
16:58 42.1 °F 39.1 °F 30.07 in SE 7.0 mph 10.0 mph 89 % 0.00 in 0 W/m2
17:05 42.1 °F 39.1 °F 30.07 in SE 7.0 mph 10.0 mph 89 % 0.00 in 0 W/m2
17:16 42.1 °F 39.1 °F 30.08 in ESE 7.0 mph 12.0 mph 89 % 0.00 in 0 W/m2
17:37 42.1 °F 39.1 °F 30.08 in ESE 6.0 mph 8.0 mph 89 % 0.00 in 0 W/m2
17:45 42.1 °F 39.1 °F 30.08 in ESE 6.0 mph 9.0 mph 89 % 0.00 in 0 W/m2
17:54 41.9 °F 38.9 °F 30.08 in SE 7.0 mph 13.0 mph 89 % 0.00 in 0 W/m2
18:02 41.9 °F 38.9 °F 30.09 in SE 7.0 mph 12.0 mph 89 % 0.00 in 0 W/m2
18:13 41.7 °F 38.7 °F 30.09 in SE 8.0 mph 13.0 mph 89 % 0.00 in 0 W/m2
18:18 41.7 °F 38.7 °F 30.09 in SE 7.0 mph 14.0 mph 89 % 0.00 in 0 W/m2
18:25 41.5 °F 38.8 °F 30.09 in ESE 7.0 mph 12.0 mph 90 % 0.00 in 0 W/m2
18:43 41.4 °F 38.6 °F 30.09 in ESE 8.0 mph 13.0 mph 90 % 0.00 in 0 W/m2
18:48 41.2 °F 38.5 °F 30.09 in SE 9.0 mph 16.0 mph 90 % 0.00 in 0 W/m2
18:57 41.0 °F 38.3 °F 30.10 in SE 9.0 mph 13.0 mph 90 % 0.00 in 0 W/m2
19:07 40.8 °F 38.1 °F 30.10 in SE 7.0 mph 11.0 mph 90 % 0.00 in 0 W/m2
19:23 40.6 °F 37.9 °F 30.10 in SE 9.0 mph 13.0 mph 90 % 0.00 in 0 W/m2
19:31 40.5 °F 37.8 °F 30.10 in ESE 7.0 mph 11.0 mph 90 % 0.00 in 0 W/m2
19:44 40.5 °F 37.8 °F 30.10 in SE 7.0 mph 12.0 mph 90 % 0.00 in 0 W/m2
19:45 40.3 °F 37.6 °F 30.10 in SE 8.0 mph 14.0 mph 90 % 0.00 in 0 W/m2
19:50 40.3 °F 37.6 °F 30.10 in SE 6.0 mph 11.0 mph 90 % 0.00 in 0 W/m2
19:55 40.3 °F 37.6 °F 30.10 in SE 7.0 mph 9.0 mph 90 % 0.00 in 0 W/m2
20:00 40.3 °F 37.6 °F 30.10 in SE 8.0 mph 14.0 mph 90 % 0.00 in 0 W/m2
20:06 40.1 °F 37.4 °F 30.10 in SSE 5.0 mph 8.0 mph 90 % 0.00 in 0 W/m2
20:15 40.1 °F 37.4 °F 30.11 in SE 8.0 mph 13.0 mph 90 % 0.00 in 0 W/m2
20:32 39.9 °F 37.2 °F 30.11 in SE 6.0 mph 10.0 mph 90 % 0.00 in 0 W/m2
20:37 39.9 °F 36.9 °F 30.11 in SE 7.0 mph 11.0 mph 89 % 0.00 in 0 W/m2
20:52 39.9 °F 36.9 °F 30.11 in SE 8.0 mph 12.0 mph 89 % 0.00 in 0 W/m2
21:18 39.7 °F 36.8 °F 30.11 in SE 5.0 mph 10.0 mph 89 % 0.00 in 0 W/m2
21:27 39.7 °F 36.8 °F 30.11 in SE 6.0 mph 9.0 mph 89 % 0.00 in 0 W/m2
21:33 39.7 °F 36.8 °F 30.11 in SE 5.0 mph 8.0 mph 89 % 0.00 in 0 W/m2
21:38 39.6 °F 36.6 °F 30.11 in SE 9.0 mph 14.0 mph 89 % 0.00 in 0 W/m2
21:48 39.6 °F 36.6 °F 30.11 in SE 7.0 mph 10.0 mph 89 % 0.00 in 0 W/m2
22:00 39.6 °F 36.6 °F 30.11 in SE 7.0 mph 11.0 mph 89 % 0.00 in 0 W/m2
22:10 39.4 °F 36.4 °F 30.11 in SE 6.0 mph 11.0 mph 89 % 0.00 in 0 W/m2
22:16 39.4 °F 36.4 °F 30.12 in SE 8.0 mph 12.0 mph 89 % 0.00 in 0 W/m2
22:24 39.4 °F 36.1 °F 30.12 in SE 7.0 mph 11.0 mph 88 % 0.00 in 0 W/m2
22:32 39.4 °F 36.1 °F 30.12 in SE 7.0 mph 9.0 mph 88 % 0.00 in 0 W/m2
22:39 39.4 °F 36.1 °F 30.12 in SE 9.0 mph 14.0 mph 88 % 0.00 in 0 W/m2
22:44 39.4 °F 36.1 °F 30.13 in SE 8.0 mph 13.0 mph 88 % 0.00 in 0 W/m2
22:49 39.2 °F 35.7 °F 30.12 in SSE 8.0 mph 12.0 mph 87 % 0.00 in 0 W/m2
23:04 39.2 °F 35.7 °F 30.13 in SE 8.0 mph 12.0 mph 87 % 0.00 in 0 W/m2
23:29 39.2 °F 35.7 °F 30.12 in SE 8.0 mph 12.0 mph 87 % 0.00 in 0 W/m2
23:37 39.2 °F 35.7 °F 30.12 in SE 6.0 mph 9.0 mph 87 % 0.00 in 0 W/m2
23:44 39.2 °F 35.7 °F 30.12 in SE 5.0 mph 7.0 mph 87 % 0.00 in 0 W/m2
23:52 39.2 °F 35.9 °F 30.12 in SE 4.0 mph 7.0 mph 88 % 0.00 in 0 W/m2
23:59 39.2 °F 35.9 °F 30.12 in SE 5.0 mph 10.0 mph 88 % 0.00 in 0 W/m2
Delerius-Weather
Compliments of Weather Underground - 1.5 mb

Data updates at regular intervals.